createdAt,value
2018-12-12T00:00:35.101Z,25.22
2018-12-12T00:02:42.325Z,25.24
2018-12-12T00:04:49.270Z,25.23
2018-12-12T00:06:57.291Z,25.10
2018-12-12T00:09:04.630Z,25.10
2018-12-12T00:11:12.585Z,25.09
2018-12-12T00:13:22.836Z,25.05
2018-12-12T00:15:32.173Z,24.97
2018-12-12T00:17:39.743Z,24.70
2018-12-12T00:19:47.250Z,24.85
2018-12-12T00:21:54.223Z,24.76
2018-12-12T00:24:01.065Z,24.77
2018-12-12T00:26:07.822Z,24.80
2018-12-12T00:28:15.159Z,24.90
2018-12-12T00:30:22.474Z,24.82
2018-12-12T00:32:29.660Z,24.77
2018-12-12T00:34:36.522Z,24.58
2018-12-12T00:36:44.070Z,24.64
2018-12-12T00:38:51.095Z,24.64
2018-12-12T00:40:58.420Z,24.76
2018-12-12T00:43:05.188Z,24.77
2018-12-12T00:45:13.757Z,24.73
2018-12-12T00:47:20.897Z,24.78
2018-12-12T00:49:28.288Z,24.73
2018-12-12T00:51:35.437Z,24.77
2018-12-12T00:53:43.951Z,24.75
2018-12-12T00:55:51.177Z,24.72
2018-12-12T00:57:58.290Z,24.54
2018-12-12T01:00:09.366Z,24.45
2018-12-12T01:02:16.258Z,24.64
2018-12-12T01:04:23.595Z,24.54
2018-12-12T01:06:31.944Z,24.60
2018-12-12T01:08:39.022Z,24.79
2018-12-12T01:10:47.302Z,24.66
2018-12-12T01:12:55.103Z,24.70
2018-12-12T01:19:40.255Z,24.85
2018-12-12T01:26:16.864Z,24.55
2018-12-12T01:30:45.909Z,24.57
2018-12-12T01:37:41.792Z,24.49
2018-12-12T01:39:57.446Z,24.52
2018-12-12T01:42:12.414Z,24.50
2018-12-12T01:51:46.758Z,24.52
2018-12-12T02:21:02.476Z,23.89
2018-12-12T03:03:28.700Z,23.65
2018-12-12T03:15:33.921Z,23.46
2018-12-12T03:24:18.717Z,23.49
2018-12-12T03:31:06.163Z,23.38
2018-12-12T03:37:40.889Z,23.25
2018-12-12T03:44:18.783Z,23.34
2018-12-12T03:55:22.701Z,22.86
2018-12-12T03:59:44.878Z,22.93
2018-12-12T04:01:53.514Z,22.83
2018-12-12T04:04:00.288Z,22.89
2018-12-12T04:06:07.274Z,22.93
2018-12-12T04:08:14.340Z,22.99
2018-12-12T04:10:21.421Z,22.99
2018-12-12T04:12:28.839Z,23.00
2018-12-12T04:14:35.786Z,22.93
2018-12-12T04:16:42.930Z,22.87
2018-12-12T04:18:49.837Z,22.91
2018-12-12T04:20:57.050Z,22.83
2018-12-12T04:23:04.754Z,22.82
2018-12-12T04:25:12.121Z,22.83
2018-12-12T04:27:19.039Z,22.86
2018-12-12T04:29:26.685Z,22.95
2018-12-12T04:31:33.928Z,23.04
2018-12-12T04:33:41.272Z,23.04
2018-12-12T04:35:48.526Z,23.07
2018-12-12T04:37:55.397Z,22.94
2018-12-12T04:40:02.119Z,22.87
2018-12-12T04:42:09.434Z,22.87
2018-12-12T04:44:16.170Z,22.80
2018-12-12T04:46:22.976Z,22.67
2018-12-12T04:48:29.856Z,22.72
2018-12-12T04:50:37.073Z,22.86
2018-12-12T04:52:44.118Z,23.01
2018-12-12T04:54:50.902Z,23.13
2018-12-12T04:56:58.117Z,23.24
2018-12-12T04:59:05.219Z,23.37
2018-12-12T05:01:12.042Z,23.52
2018-12-12T05:03:19.924Z,23.51
2018-12-12T05:05:26.760Z,23.58
2018-12-12T05:07:33.730Z,23.52
2018-12-12T05:09:40.450Z,23.47
2018-12-12T05:11:47.221Z,23.40
2018-12-12T05:13:53.981Z,23.32
2018-12-12T05:16:00.984Z,23.37
2018-12-12T05:18:07.706Z,23.28
2018-12-12T05:20:14.646Z,23.23
2018-12-12T05:22:21.917Z,23.20
2018-12-12T05:24:28.863Z,23.17
2018-12-12T05:26:35.933Z,23.13
2018-12-12T05:28:42.716Z,23.12
2018-12-12T05:30:49.146Z,23.06
2018-12-12T05:32:56.106Z,23.07
2018-12-12T05:35:02.912Z,23.02
2018-12-12T05:37:09.944Z,23.00
2018-12-12T05:39:17.616Z,22.93
2018-12-12T05:41:24.721Z,22.95
2018-12-12T05:43:31.277Z,22.93
2018-12-12T05:45:38.576Z,22.87
2018-12-12T05:47:45.407Z,22.88
2018-12-12T05:49:52.072Z,22.87
2018-12-12T05:51:58.837Z,22.94
2018-12-12T05:54:06.195Z,23.06
2018-12-12T05:56:14.295Z,23.15
2018-12-12T05:58:21.170Z,23.30
2018-12-12T06:00:28.199Z,23.43
2018-12-12T06:02:35.144Z,23.49
2018-12-12T06:04:42.041Z,23.40
2018-12-12T06:06:48.895Z,23.41
2018-12-12T06:08:55.683Z,23.41
2018-12-12T06:11:02.369Z,23.31
2018-12-12T06:13:09.318Z,23.32
2018-12-12T06:15:16.172Z,23.22
2018-12-12T06:17:22.789Z,23.16
2018-12-12T06:19:30.080Z,23.13
2018-12-12T06:21:36.900Z,23.08
2018-12-12T06:23:43.926Z,23.05
2018-12-12T06:25:50.709Z,23.06
2018-12-12T06:27:57.469Z,22.95
2018-12-12T06:30:04.877Z,22.94
2018-12-12T06:32:11.637Z,22.86
2018-12-12T06:34:18.282Z,22.85
2018-12-12T06:36:25.197Z,22.83
2018-12-12T06:38:32.299Z,22.85
2018-12-12T06:40:39.328Z,22.93
2018-12-12T06:42:45.995Z,22.97
2018-12-12T06:44:53.131Z,23.06
2018-12-12T06:47:00.666Z,23.14
2018-12-12T06:49:07.647Z,23.31
2018-12-12T06:51:14.270Z,23.45
2018-12-12T06:53:20.820Z,23.54
2018-12-12T06:55:27.693Z,23.47
2018-12-12T06:57:34.787Z,23.46
2018-12-12T06:59:41.833Z,23.40
2018-12-12T07:01:48.846Z,23.31
2018-12-12T07:03:55.801Z,23.24
2018-12-12T07:06:02.450Z,23.16
2018-12-12T07:08:09.366Z,23.14
2018-12-12T07:10:16.444Z,23.13
2018-12-12T07:12:23.469Z,23.05
2018-12-12T07:14:30.445Z,23.02
2018-12-12T07:16:37.418Z,22.96
2018-12-12T07:18:44.788Z,22.92
2018-12-12T07:20:51.514Z,22.92
2018-12-12T07:22:58.333Z,22.88
2018-12-12T07:25:05.358Z,22.82
2018-12-12T07:27:12.157Z,22.83
2018-12-12T07:29:19.110Z,22.79
2018-12-12T07:31:25.786Z,22.81
2018-12-12T07:33:32.889Z,22.91
2018-12-12T07:35:39.713Z,23.02
2018-12-12T07:37:46.760Z,23.22
2018-12-12T07:39:54.459Z,23.38
2018-12-12T07:42:02.282Z,23.49
2018-12-12T07:44:09.125Z,23.51
2018-12-12T07:46:16.294Z,23.45
2018-12-12T07:48:23.274Z,23.45
2018-12-12T07:50:30.741Z,23.42
2018-12-12T07:52:37.538Z,23.34
2018-12-12T07:54:44.226Z,23.26
2018-12-12T07:56:51.421Z,23.20
2018-12-12T07:58:58.294Z,23.16
2018-12-12T08:01:05.346Z,23.11
2018-12-12T08:03:12.094Z,23.03
2018-12-12T08:05:19.005Z,23.00
2018-12-12T08:07:25.886Z,22.95
2018-12-12T08:09:33.013Z,22.93
2018-12-12T08:11:40.035Z,22.90
2018-12-12T08:13:46.758Z,22.92
2018-12-12T08:15:53.617Z,22.88
2018-12-12T08:18:00.462Z,22.83
2018-12-12T08:20:07.485Z,22.83
2018-12-12T08:22:14.135Z,22.79
2018-12-12T08:24:21.157Z,22.78
2018-12-12T08:26:28.322Z,22.72
2018-12-12T08:28:35.079Z,22.72
2018-12-12T08:30:41.853Z,22.75
2018-12-12T08:32:48.582Z,22.82
2018-12-12T08:34:55.263Z,22.92
2018-12-12T08:37:02.705Z,23.07
2018-12-12T08:39:10.290Z,23.14
2018-12-12T08:41:16.914Z,23.28
2018-12-12T08:43:23.625Z,23.38
2018-12-12T08:45:30.629Z,23.49
2018-12-12T08:47:38.063Z,23.53
2018-12-12T08:49:44.898Z,23.43
2018-12-12T08:51:51.847Z,23.35
2018-12-12T08:53:58.711Z,23.33
2018-12-12T08:56:06.078Z,23.33
2018-12-12T08:58:12.889Z,23.23
2018-12-12T09:00:19.867Z,23.18
2018-12-12T09:02:26.686Z,23.12
2018-12-12T09:04:33.457Z,23.17
2018-12-12T09:06:40.690Z,23.21
2018-12-12T09:08:48.227Z,23.28
2018-12-12T09:10:55.009Z,23.40
2018-12-12T09:13:01.727Z,23.49
2018-12-12T09:15:08.930Z,23.63
2018-12-12T09:17:15.860Z,23.69
2018-12-12T09:19:22.886Z,23.79
2018-12-12T09:21:30.424Z,23.92
2018-12-12T09:23:38.322Z,24.00
2018-12-12T09:25:45.192Z,24.04
2018-12-12T09:27:52.002Z,23.94
2018-12-12T09:29:59.106Z,23.90
2018-12-12T09:32:05.850Z,23.82
2018-12-12T09:34:12.745Z,23.78
2018-12-12T09:36:19.961Z,23.69
2018-12-12T09:38:27.121Z,23.63
2018-12-12T09:40:34.081Z,23.60
2018-12-12T09:42:40.615Z,23.52
2018-12-12T09:44:47.622Z,23.43
2018-12-12T09:46:54.854Z,23.38
2018-12-12T09:49:01.762Z,23.35
2018-12-12T09:51:08.631Z,23.24
2018-12-12T09:53:15.661Z,23.28
2018-12-12T09:55:22.390Z,23.19
2018-12-12T09:57:29.280Z,23.14
2018-12-12T09:59:36.011Z,23.12
2018-12-12T10:01:42.838Z,23.22
2018-12-12T10:03:53.174Z,23.33
2018-12-12T10:06:00.230Z,23.48
2018-12-12T10:08:07.062Z,23.64
2018-12-12T10:10:14.080Z,23.77
2018-12-12T10:12:21.087Z,23.81
2018-12-12T10:14:27.678Z,23.76
2018-12-12T10:16:34.502Z,23.77
2018-12-12T10:18:41.491Z,23.80
2018-12-12T10:20:48.375Z,23.82
2018-12-12T10:22:55.226Z,23.88
2018-12-12T10:25:02.139Z,23.97
2018-12-12T10:27:09.602Z,24.08
2018-12-12T10:29:17.033Z,24.14
2018-12-12T10:31:24.338Z,24.12
2018-12-12T10:33:37.439Z,24.05
2018-12-12T10:35:40.493Z,24.00
2018-12-12T10:37:47.510Z,23.93
2018-12-12T10:39:54.296Z,23.85
2018-12-12T10:42:01.045Z,23.84
2018-12-12T10:44:07.966Z,23.77
2018-12-12T10:46:14.735Z,23.71
2018-12-12T10:48:22.697Z,23.63
2018-12-12T10:50:29.861Z,23.60
2018-12-12T10:52:37.160Z,23.54
2018-12-12T10:54:43.973Z,23.49
2018-12-12T10:56:50.730Z,23.49
2018-12-12T10:58:57.649Z,23.44
2018-12-12T11:01:08.806Z,23.36
2018-12-12T11:03:52.656Z,23.29
2018-12-12T11:05:59.375Z,23.29
2018-12-12T11:08:06.410Z,23.22
2018-12-12T11:10:13.182Z,23.18
2018-12-12T11:12:20.124Z,23.21
2018-12-12T11:14:26.870Z,23.15
2018-12-12T11:16:33.812Z,23.09
2018-12-12T11:18:40.623Z,23.12
2018-12-12T11:20:47.325Z,23.14
2018-12-12T11:22:54.877Z,23.24
2018-12-12T11:25:01.929Z,23.34
2018-12-12T11:27:08.626Z,23.46
2018-12-12T11:29:15.326Z,23.59
2018-12-12T11:31:22.162Z,23.68
2018-12-12T11:33:28.874Z,23.78
2018-12-12T11:35:35.927Z,23.90
2018-12-12T11:37:43.474Z,23.99
2018-12-12T11:39:50.289Z,24.07
2018-12-12T11:41:57.158Z,24.15
2018-12-12T11:44:03.849Z,24.26
2018-12-12T11:46:11.149Z,24.29
2018-12-12T11:48:17.982Z,24.14
2018-12-12T11:50:25.039Z,24.08
2018-12-12T11:52:31.757Z,24.03
2018-12-12T11:54:38.742Z,23.97
2018-12-12T11:56:45.634Z,23.89
2018-12-12T11:58:52.669Z,23.86
2018-12-12T12:01:00.123Z,23.82
2018-12-12T12:03:06.377Z,23.74
2018-12-12T12:05:13.318Z,23.71
2018-12-12T12:07:20.225Z,23.61
2018-12-12T12:09:27.270Z,23.51
2018-12-12T12:11:33.940Z,23.53
2018-12-12T12:13:40.586Z,23.49
2018-12-12T12:15:47.454Z,23.49
2018-12-12T12:17:54.371Z,23.40
2018-12-12T12:20:01.138Z,23.42
2018-12-12T12:22:07.906Z,23.35
2018-12-12T12:24:14.610Z,23.32
2018-12-12T12:26:21.971Z,23.35
2018-12-12T12:28:28.917Z,23.37
2018-12-12T12:30:35.895Z,23.25
2018-12-12T12:32:42.737Z,23.58
2018-12-12T12:34:49.791Z,23.71
2018-12-12T12:36:57.694Z,23.83
2018-12-12T12:39:05.918Z,23.98
2018-12-12T12:41:13.481Z,24.08
2018-12-12T12:43:20.436Z,24.17
2018-12-12T12:45:29.179Z,24.24
2018-12-12T12:47:36.152Z,24.31
2018-12-12T12:49:43.053Z,24.42
2018-12-12T12:51:49.775Z,24.55
2018-12-12T12:53:57.327Z,24.65
2018-12-12T12:56:04.272Z,24.69
2018-12-12T12:58:11.070Z,24.75
2018-12-12T13:00:17.833Z,24.82
2018-12-12T13:02:25.390Z,24.93
2018-12-12T13:04:32.579Z,24.95
2018-12-12T13:06:39.341Z,25.05
2018-12-12T13:08:46.276Z,25.12
2018-12-12T13:10:53.101Z,25.23
2018-12-12T13:13:00.334Z,25.35
2018-12-12T13:15:07.666Z,25.41
2018-12-12T13:17:15.103Z,25.51
2018-12-12T13:19:21.953Z,25.65
2018-12-12T13:21:28.693Z,25.62
2018-12-12T13:23:35.630Z,25.60
2018-12-12T13:25:42.966Z,25.52
2018-12-12T13:27:49.903Z,25.28
2018-12-12T13:29:57.480Z,25.21
2018-12-12T13:32:04.341Z,25.08
2018-12-12T13:34:16.231Z,24.99
2018-12-12T13:36:20.270Z,24.92
2018-12-12T13:38:27.286Z,24.82
2018-12-12T13:40:33.942Z,24.75
2018-12-12T13:42:41.002Z,24.69
2018-12-12T13:44:47.826Z,24.60
2018-12-12T13:46:54.705Z,24.53
2018-12-12T13:49:01.673Z,24.49
2018-12-12T13:51:08.619Z,24.41
2018-12-12T13:53:15.601Z,24.42
2018-12-12T13:55:22.476Z,24.36
2018-12-12T13:57:29.146Z,24.38
2018-12-12T13:59:36.201Z,24.46
2018-12-12T14:01:43.185Z,24.68
2018-12-12T14:03:50.029Z,24.85
2018-12-12T14:05:56.994Z,24.99
2018-12-12T14:08:03.727Z,25.21
2018-12-12T14:10:10.341Z,25.40
2018-12-12T14:12:17.658Z,25.54
2018-12-12T14:14:24.287Z,25.71
2018-12-12T14:16:31.084Z,25.81
2018-12-12T14:18:37.964Z,25.93
2018-12-12T14:20:44.707Z,26.02
2018-12-12T14:22:51.553Z,26.02
2018-12-12T14:24:58.493Z,25.99
2018-12-12T14:27:05.261Z,25.83
2018-12-12T14:29:12.401Z,25.71
2018-12-12T14:31:19.078Z,25.60
2018-12-12T14:33:25.925Z,25.50
2018-12-12T14:35:32.783Z,25.47
2018-12-12T14:37:39.496Z,25.28
2018-12-12T14:39:46.452Z,25.20
2018-12-12T14:41:53.654Z,25.14
2018-12-12T14:44:00.375Z,25.07
2018-12-12T14:46:07.283Z,25.00
2018-12-12T14:48:14.499Z,24.95
2018-12-12T14:50:21.435Z,24.86
2018-12-12T14:52:28.224Z,24.87
2018-12-12T14:54:35.260Z,24.84
2018-12-12T14:56:42.604Z,24.78
2018-12-12T14:58:49.671Z,24.75
2018-12-12T15:00:56.490Z,24.64
2018-12-12T15:03:03.659Z,24.59
2018-12-12T15:05:10.543Z,24.59
2018-12-12T15:07:17.554Z,24.64
2018-12-12T15:09:24.514Z,24.61
2018-12-12T15:11:31.394Z,24.53
2018-12-12T15:13:38.193Z,24.60
2018-12-12T15:15:44.871Z,24.58
2018-12-12T15:17:51.754Z,24.54
2018-12-12T15:19:58.610Z,24.55
2018-12-12T15:22:05.525Z,24.51
2018-12-12T15:24:12.182Z,24.32
2018-12-12T15:26:19.038Z,24.54
2018-12-12T15:28:26.142Z,24.45
2018-12-12T15:30:33.445Z,24.45
2018-12-12T15:32:40.516Z,24.48
2018-12-12T15:34:47.447Z,24.46
2018-12-12T15:36:54.102Z,24.42
2018-12-12T15:39:00.887Z,24.42
2018-12-12T15:41:07.732Z,24.39
2018-12-12T15:43:14.630Z,24.37
2018-12-12T15:45:21.505Z,24.35
2018-12-12T15:47:28.406Z,24.37
2018-12-12T15:49:35.255Z,24.31
2018-12-12T15:51:42.055Z,24.32
2018-12-12T15:53:48.861Z,24.23
2018-12-12T15:55:55.544Z,24.29
2018-12-12T15:59:06.779Z,24.41
2018-12-12T16:01:13.768Z,24.40
2018-12-12T16:03:20.750Z,24.38
2018-12-12T16:05:27.863Z,24.38
2018-12-12T16:07:34.685Z,24.39
2018-12-12T16:09:42.522Z,24.37
2018-12-12T16:11:49.386Z,24.38
2018-12-12T16:13:56.167Z,24.38
2018-12-12T16:16:03.861Z,24.38
2018-12-12T16:18:10.628Z,24.42
2018-12-12T16:20:17.345Z,24.43
2018-12-12T16:22:24.331Z,24.41
2018-12-12T16:24:31.131Z,24.41
2018-12-12T16:26:37.789Z,24.39
2018-12-12T16:28:45.147Z,24.36
2018-12-12T16:30:51.767Z,24.37
2018-12-12T16:33:00.154Z,24.34
2018-12-12T16:35:07.606Z,24.33
2018-12-12T16:37:15.009Z,24.28
2018-12-12T16:39:22.126Z,24.26
2018-12-12T16:41:29.038Z,24.14
2018-12-12T16:43:35.827Z,24.14
2018-12-12T16:45:42.694Z,24.31
2018-12-12T16:47:49.573Z,24.48
2018-12-12T16:49:57.181Z,24.76
2018-12-12T16:52:04.154Z,24.97
2018-12-12T16:54:11.042Z,25.15
2018-12-12T16:56:18.050Z,25.33
2018-12-12T16:58:25.849Z,25.48
2018-12-12T17:00:33.179Z,25.52
2018-12-12T17:02:39.869Z,25.59
2018-12-12T17:04:46.747Z,25.78
2018-12-12T17:06:53.354Z,25.80
2018-12-12T17:09:00.259Z,25.92
2018-12-12T17:11:07.835Z,25.97
2018-12-12T17:13:15.250Z,25.86
2018-12-12T17:15:22.119Z,25.67
2018-12-12T17:17:28.729Z,25.61
2018-12-12T17:19:35.495Z,25.43
2018-12-12T17:21:42.805Z,25.38
2018-12-12T17:23:49.447Z,25.30
2018-12-12T17:25:56.353Z,25.24
2018-12-12T17:28:03.221Z,25.17
2018-12-12T17:30:10.511Z,25.10
2018-12-12T17:32:17.223Z,25.05
2018-12-12T17:34:24.939Z,25.02
2018-12-12T17:36:32.073Z,24.97
2018-12-12T17:38:39.025Z,24.94
2018-12-12T17:40:45.835Z,24.87
2018-12-12T17:42:52.691Z,24.84
2018-12-12T17:44:59.527Z,24.84
2018-12-12T17:47:06.458Z,24.81
2018-12-12T17:49:13.478Z,24.75
2018-12-12T17:51:20.286Z,24.72
2018-12-12T17:53:27.213Z,24.72
2018-12-12T17:55:33.989Z,24.69
2018-12-12T17:57:41.081Z,24.68
2018-12-12T17:59:47.858Z,24.63
2018-12-12T18:01:54.860Z,24.64
2018-12-12T18:04:01.712Z,24.61
2018-12-12T18:06:08.400Z,24.60
2018-12-12T18:08:15.092Z,24.62
2018-12-12T18:10:21.957Z,24.54
2018-12-12T18:12:29.056Z,24.55
2018-12-12T18:14:35.813Z,24.60
2018-12-12T18:16:42.945Z,24.71
2018-12-12T18:18:49.806Z,24.90
2018-12-12T18:20:56.699Z,24.96
2018-12-12T18:23:03.711Z,25.18
2018-12-12T18:25:10.521Z,25.33
2018-12-12T18:27:17.287Z,25.39
2018-12-12T18:29:25.030Z,25.66
2018-12-12T18:31:31.833Z,25.86
2018-12-12T18:33:39.070Z,26.08
2018-12-12T18:35:45.795Z,26.28
2018-12-12T18:37:52.838Z,26.43
2018-12-12T18:39:59.674Z,26.61
2018-12-12T18:42:06.385Z,26.55
2018-12-12T18:44:13.093Z,26.48
2018-12-12T18:46:20.501Z,26.41
2018-12-12T18:48:27.373Z,26.32
2018-12-12T18:50:35.089Z,26.17
2018-12-12T18:52:41.773Z,26.03
2018-12-12T18:54:48.985Z,26.05
2018-12-12T18:56:56.610Z,25.96
2018-12-12T18:59:03.361Z,25.81
2018-12-12T19:01:10.312Z,25.79
2018-12-12T19:03:17.065Z,25.72
2018-12-12T19:05:28.279Z,25.72
2018-12-12T19:07:33.041Z,25.62
2018-12-12T19:09:39.832Z,25.67
2018-12-12T19:11:47.083Z,25.68
2018-12-12T19:13:53.950Z,25.60
2018-12-12T19:16:00.610Z,25.52
2018-12-12T19:18:07.494Z,25.63
2018-12-12T19:20:14.058Z,25.63
2018-12-12T19:22:20.706Z,25.62
2018-12-12T19:24:27.606Z,25.56
2018-12-12T19:26:34.510Z,25.54
2018-12-12T19:28:41.395Z,25.48
2018-12-12T19:30:48.463Z,25.45
2018-12-12T19:32:55.870Z,25.34
2018-12-12T19:35:02.690Z,25.23
2018-12-12T19:37:09.434Z,25.17
2018-12-12T19:39:16.298Z,25.15
2018-12-12T19:41:23.412Z,25.11
2018-12-12T19:43:30.301Z,25.04
2018-12-12T19:45:37.042Z,24.74
2018-12-12T19:47:43.888Z,25.02
2018-12-12T19:49:50.941Z,24.97
2018-12-12T19:51:57.633Z,24.99
2018-12-12T19:54:04.333Z,25.00
2018-12-12T19:56:11.300Z,24.95
2018-12-12T19:58:18.309Z,24.94
2018-12-12T20:00:25.067Z,24.87
2018-12-12T20:02:31.758Z,24.91
2018-12-12T20:04:38.754Z,24.93
2018-12-12T20:06:45.517Z,24.93
2018-12-12T20:08:52.514Z,24.93
2018-12-12T20:10:59.524Z,24.87
2018-12-12T20:13:06.028Z,24.86
2018-12-12T20:15:16.578Z,24.81
2018-12-12T20:17:23.364Z,24.81
2018-12-12T20:19:30.189Z,24.80
2018-12-12T20:21:36.873Z,24.78
2018-12-12T20:23:43.581Z,24.75
2018-12-12T20:25:50.635Z,24.70
2018-12-12T20:27:57.433Z,24.65
2018-12-12T20:30:04.285Z,24.74
2018-12-12T20:32:11.125Z,24.81
2018-12-12T20:34:18.062Z,24.89
2018-12-12T20:36:24.656Z,25.06
2018-12-12T20:38:31.267Z,25.20
2018-12-12T20:40:38.234Z,25.34
2018-12-12T20:42:44.951Z,25.46
2018-12-12T20:44:51.784Z,25.61
2018-12-12T20:46:58.379Z,25.71
2018-12-12T20:49:06.330Z,25.72
2018-12-12T20:51:13.264Z,25.69
2018-12-12T20:53:19.902Z,25.61
2018-12-12T20:55:26.936Z,25.55
2018-12-12T20:57:34.403Z,25.52
2018-12-12T20:59:41.247Z,25.48
2018-12-12T21:01:48.265Z,25.40
2018-12-12T21:03:55.225Z,25.24
2018-12-12T21:06:03.086Z,25.11
2018-12-12T21:08:10.117Z,25.04
2018-12-12T21:10:17.004Z,24.94
2018-12-12T21:12:23.929Z,24.89
2018-12-12T21:14:30.910Z,24.88
2018-12-12T21:16:37.863Z,24.86
2018-12-12T21:18:44.711Z,24.86
2018-12-12T21:20:51.486Z,24.78
2018-12-12T21:22:58.145Z,24.77
2018-12-12T21:25:04.991Z,24.75
2018-12-12T21:27:12.147Z,24.69
2018-12-12T21:29:19.072Z,24.69
2018-12-12T21:31:25.698Z,24.60
2018-12-12T21:33:32.386Z,24.63
2018-12-12T21:35:39.173Z,24.62
2018-12-12T21:37:45.911Z,24.57
2018-12-12T21:39:52.629Z,24.60
2018-12-12T21:41:59.885Z,24.54
2018-12-12T21:44:06.835Z,24.50
2018-12-12T21:46:13.994Z,24.64
2018-12-12T21:48:20.975Z,24.75
2018-12-12T21:50:27.762Z,24.87
2018-12-12T21:52:34.505Z,24.98
2018-12-12T21:54:41.252Z,25.15
2018-12-12T21:56:48.486Z,25.28
2018-12-12T21:58:55.141Z,25.39
2018-12-12T22:01:02.402Z,25.48
2018-12-12T22:03:09.307Z,25.60
2018-12-12T22:05:16.488Z,25.63
2018-12-12T22:07:23.368Z,25.85
2018-12-12T22:09:30.547Z,26.03
2018-12-12T22:11:37.409Z,26.22
2018-12-12T22:13:44.277Z,26.31
2018-12-12T22:15:51.021Z,26.38
2018-12-12T22:17:57.937Z,26.31
2018-12-12T22:20:04.915Z,26.26
2018-12-12T22:22:11.848Z,26.24
2018-12-12T22:24:18.663Z,26.09
2018-12-12T22:26:25.564Z,25.82
2018-12-12T22:28:32.437Z,25.66
2018-12-12T22:30:39.339Z,25.69
2018-12-12T22:32:45.947Z,25.55
2018-12-12T22:34:52.596Z,25.64
2018-12-12T22:36:59.364Z,25.49
2018-12-12T22:39:08.108Z,25.40
2018-12-12T22:41:15.375Z,25.31
2018-12-12T22:43:22.070Z,25.18
2018-12-12T22:45:28.885Z,25.15
2018-12-12T22:47:35.610Z,25.17
2018-12-12T22:49:42.630Z,25.18
2018-12-12T22:51:49.440Z,25.17
2018-12-12T22:53:56.373Z,25.07
2018-12-12T22:56:03.366Z,25.00
2018-12-12T22:58:10.181Z,25.06
2018-12-12T23:00:22.566Z,25.04
2018-12-12T23:02:29.308Z,24.95
2018-12-12T23:04:36.071Z,24.87
2018-12-12T23:06:43.102Z,24.87
2018-12-12T23:08:50.022Z,24.98
2018-12-12T23:10:57.270Z,24.83
2018-12-12T23:13:03.896Z,24.89
2018-12-12T23:15:11.362Z,24.75
2018-12-12T23:17:18.457Z,24.74
2018-12-12T23:19:25.273Z,24.72
2018-12-12T23:21:32.345Z,24.68
2018-12-12T23:23:39.033Z,24.75
2018-12-12T23:25:45.726Z,24.64
2018-12-12T23:27:52.852Z,24.74
2018-12-12T23:29:59.532Z,24.74
2018-12-12T23:32:07.062Z,24.73
2018-12-12T23:34:13.924Z,24.84
2018-12-12T23:36:26.797Z,24.75
2018-12-12T23:38:30.229Z,24.78
2018-12-12T23:40:36.945Z,25.04
2018-12-12T23:42:44.038Z,25.21
2018-12-12T23:44:51.606Z,25.37
2018-12-12T23:46:58.651Z,25.51
2018-12-12T23:49:05.455Z,25.63
2018-12-12T23:51:12.462Z,25.74
2018-12-12T23:53:19.612Z,25.71
2018-12-12T23:55:26.746Z,25.61
2018-12-12T23:57:33.313Z,25.63
2018-12-12T23:59:40.042Z,25.55
